sensor_id;sensor_type;location;lat;lon;timestamp;temperature;humidity
25550;DHT22;13444;50.562;7.262;2022-10-31T00:00:51;11.60;99.90
25550;DHT22;13444;50.562;7.262;2022-10-31T00:03:17;11.60;99.90
25550;DHT22;13444;50.562;7.262;2022-10-31T00:05:43;11.60;99.90
25550;DHT22;13444;50.562;7.262;2022-10-31T00:08:09;11.60;99.90
25550;DHT22;13444;50.562;7.262;2022-10-31T00:10:38;11.60;99.90
25550;DHT22;13444;50.562;7.262;2022-10-31T00:13:04;11.60;99.90
25550;DHT22;13444;50.562;7.262;2022-10-31T00:15:29;11.60;99.90
25550;DHT22;13444;50.562;7.262;2022-10-31T00:17:55;11.50;99.90
25550;DHT22;13444;50.562;7.262;2022-10-31T00:20:20;11.50;99.90
25550;DHT22;13444;50.562;7.262;2022-10-31T00:22:46;11.50;99.90
25550;DHT22;13444;50.562;7.262;2022-10-31T00:25:11;11.40;99.90
25550;DHT22;13444;50.562;7.262;2022-10-31T00:27:37;11.40;99.90
25550;DHT22;13444;50.562;7.262;2022-10-31T00:30:02;11.50;99.90
25550;DHT22;13444;50.562;7.262;2022-10-31T00:32:29;11.40;99.90
25550;DHT22;13444;50.562;7.262;2022-10-31T00:34:55;11.40;99.90
25550;DHT22;13444;50.562;7.262;2022-10-31T00:37:21;11.40;99.90
25550;DHT22;13444;50.562;7.262;2022-10-31T00:39:46;11.40;99.90
25550;DHT22;13444;50.562;7.262;2022-10-31T00:42:14;11.40;99.90
25550;DHT22;13444;50.562;7.262;2022-10-31T00:44:39;11.30;99.90
25550;DHT22;13444;50.562;7.262;2022-10-31T00:47:05;11.30;99.90
25550;DHT22;13444;50.562;7.262;2022-10-31T00:49:30;11.20;99.90
25550;DHT22;13444;50.562;7.262;2022-10-31T00:51:56;11.20;99.90
25550;DHT22;13444;50.562;7.262;2022-10-31T00:54:21;11.20;99.90
25550;DHT22;13444;50.562;7.262;2022-10-31T00:56:47;11.20;99.90
25550;DHT22;13444;50.562;7.262;2022-10-31T00:59:12;11.10;99.90
25550;DHT22;13444;50.562;7.262;2022-10-31T01:01:38;11.20;99.90
25550;DHT22;13444;50.562;7.262;2022-10-31T01:04:04;11.20;99.90
25550;DHT22;13444;50.562;7.262;2022-10-31T01:06:29;11.10;99.90
25550;DHT22;13444;50.562;7.262;2022-10-31T01:08:55;11.10;99.90
25550;DHT22;13444;50.562;7.262;2022-10-31T01:11:22;11.10;99.90
25550;DHT22;13444;50.562;7.262;2022-10-31T01:13:50;11.10;99.90
25550;DHT22;13444;50.562;7.262;2022-10-31T01:16:18;11.10;99.90
25550;DHT22;13444;50.562;7.262;2022-10-31T01:18:44;11.10;99.90
25550;DHT22;13444;50.562;7.262;2022-10-31T01:21:14;11.10;99.90
25550;DHT22;13444;50.562;7.262;2022-10-31T01:23:41;11.00;99.90
25550;DHT22;13444;50.562;7.262;2022-10-31T01:28:34;11.00;99.90
25550;DHT22;13444;50.562;7.262;2022-10-31T01:31:01;11.10;99.90
25550;DHT22;13444;50.562;7.262;2022-10-31T01:33:27;11.10;99.90
25550;DHT22;13444;50.562;7.262;2022-10-31T01:35:52;11.10;99.90
25550;DHT22;13444;50.562;7.262;2022-10-31T01:38:18;11.10;99.90
25550;DHT22;13444;50.562;7.262;2022-10-31T01:40:43;11.10;99.90
25550;DHT22;13444;50.562;7.262;2022-10-31T01:43:13;11.10;99.90
25550;DHT22;13444;50.562;7.262;2022-10-31T01:45:39;11.10;99.90
25550;DHT22;13444;50.562;7.262;2022-10-31T01:48:06;11.10;99.90
25550;DHT22;13444;50.562;7.262;2022-10-31T01:50:38;11.10;99.90
25550;DHT22;13444;50.562;7.262;2022-10-31T01:53:05;11.10;99.90
25550;DHT22;13444;50.562;7.262;2022-10-31T01:55:38;11.00;99.90
25550;DHT22;13444;50.562;7.262;2022-10-31T01:58:08;11.00;99.90
25550;DHT22;13444;50.562;7.262;2022-10-31T02:00:35;11.00;99.90
25550;DHT22;13444;50.562;7.262;2022-10-31T02:03:00;11.00;99.90
25550;DHT22;13444;50.562;7.262;2022-10-31T02:05:28;11.00;99.90
25550;DHT22;13444;50.562;7.262;2022-10-31T02:10:46;10.90;99.90
25550;DHT22;13444;50.562;7.262;2022-10-31T02:13:12;10.90;99.90
25550;DHT22;13444;50.562;7.262;2022-10-31T02:15:39;10.80;99.90
25550;DHT22;13444;50.562;7.262;2022-10-31T02:18:05;10.80;99.90
25550;DHT22;13444;50.562;7.262;2022-10-31T02:20:57;10.80;99.90
25550;DHT22;13444;50.562;7.262;2022-10-31T02:23:42;10.70;99.90
25550;DHT22;13444;50.562;7.262;2022-10-31T02:26:29;10.70;99.90
25550;DHT22;13444;50.562;7.262;2022-10-31T02:34:35;10.70;99.90
25550;DHT22;13444;50.562;7.262;2022-10-31T02:42:17;10.70;99.90
25550;DHT22;13444;50.562;7.262;2022-10-31T02:44:55;10.70;99.90
25550;DHT22;13444;50.562;7.262;2022-10-31T02:47:26;10.70;99.90
25550;DHT22;13444;50.562;7.262;2022-10-31T02:50:02;10.70;99.90
25550;DHT22;13444;50.562;7.262;2022-10-31T02:52:31;10.70;99.90
25550;DHT22;13444;50.562;7.262;2022-10-31T02:54:58;10.70;99.90
25550;DHT22;13444;50.562;7.262;2022-10-31T02:57:32;10.70;99.90
25550;DHT22;13444;50.562;7.262;2022-10-31T03:00:03;10.70;99.90
25550;DHT22;13444;50.562;7.262;2022-10-31T03:02:43;10.70;99.90
25550;DHT22;13444;50.562;7.262;2022-10-31T03:05:34;10.60;99.90
25550;DHT22;13444;50.562;7.262;2022-10-31T03:10:55;10.70;99.90
25550;DHT22;13444;50.562;7.262;2022-10-31T03:13:51;10.60;99.90
25550;DHT22;13444;50.562;7.262;2022-10-31T03:16:33;10.60;99.90
25550;DHT22;13444;50.562;7.262;2022-10-31T03:19:05;10.50;99.90
25550;DHT22;13444;50.562;7.262;2022-10-31T03:21:39;10.50;99.90
25550;DHT22;13444;50.562;7.262;2022-10-31T03:24:08;10.40;99.90
25550;DHT22;13444;50.562;7.262;2022-10-31T03:26:37;10.50;99.90
25550;DHT22;13444;50.562;7.262;2022-10-31T03:29:06;10.50;99.90
25550;DHT22;13444;50.562;7.262;2022-10-31T03:31:45;10.50;99.90
25550;DHT22;13444;50.562;7.262;2022-10-31T03:34:12;10.50;99.90
25550;DHT22;13444;50.562;7.262;2022-10-31T03:36:39;10.50;99.90
25550;DHT22;13444;50.562;7.262;2022-10-31T03:39:08;10.50;99.90
25550;DHT22;13444;50.562;7.262;2022-10-31T03:41:40;10.40;99.90
25550;DHT22;13444;50.562;7.262;2022-10-31T03:44:16;10.40;99.90
25550;DHT22;13444;50.562;7.262;2022-10-31T03:46:42;10.40;99.90
25550;DHT22;13444;50.562;7.262;2022-10-31T03:49:08;10.40;99.90
25550;DHT22;13444;50.562;7.262;2022-10-31T03:51:39;10.40;99.90
25550;DHT22;13444;50.562;7.262;2022-10-31T03:54:19;10.40;99.90
25550;DHT22;13444;50.562;7.262;2022-10-31T03:59:26;10.40;99.90
25550;DHT22;13444;50.562;7.262;2022-10-31T04:01:55;10.40;99.90
25550;DHT22;13444;50.562;7.262;2022-10-31T04:04:22;10.40;99.90
25550;DHT22;13444;50.562;7.262;2022-10-31T04:06:49;10.40;99.90
25550;DHT22;13444;50.562;7.262;2022-10-31T04:09:16;10.40;99.90
25550;DHT22;13444;50.562;7.262;2022-10-31T04:11:47;10.40;99.90
25550;DHT22;13444;50.562;7.262;2022-10-31T04:14:13;10.30;99.90
25550;DHT22;13444;50.562;7.262;2022-10-31T04:16:42;10.30;99.90
25550;DHT22;13444;50.562;7.262;2022-10-31T04:19:07;10.30;99.90
25550;DHT22;13444;50.562;7.262;2022-10-31T04:21:33;10.30;99.90
25550;DHT22;13444;50.562;7.262;2022-10-31T04:23:59;10.30;99.90
25550;DHT22;13444;50.562;7.262;2022-10-31T04:26:24;10.30;99.90
25550;DHT22;13444;50.562;7.262;2022-10-31T04:28:50;10.30;99.90
25550;DHT22;13444;50.562;7.262;2022-10-31T04:31:16;10.20;99.90
25550;DHT22;13444;50.562;7.262;2022-10-31T04:33:41;10.20;99.90
25550;DHT22;13444;50.562;7.262;2022-10-31T04:36:07;10.20;99.90
25550;DHT22;13444;50.562;7.262;2022-10-31T04:38:33;10.20;99.90
25550;DHT22;13444;50.562;7.262;2022-10-31T04:40:59;10.10;99.90
25550;DHT22;13444;50.562;7.262;2022-10-31T04:43:24;10.10;99.90
25550;DHT22;13444;50.562;7.262;2022-10-31T04:45:50;10.10;99.90
25550;DHT22;13444;50.562;7.262;2022-10-31T04:48:16;10.10;99.90
25550;DHT22;13444;50.562;7.262;2022-10-31T04:50:41;10.10;99.90
25550;DHT22;13444;50.562;7.262;2022-10-31T04:53:07;10.10;99.90
25550;DHT22;13444;50.562;7.262;2022-10-31T04:55:33;10.10;99.90
25550;DHT22;13444;50.562;7.262;2022-10-31T04:57:58;10.10;99.90
25550;DHT22;13444;50.562;7.262;2022-10-31T05:00:24;10.10;99.90
25550;DHT22;13444;50.562;7.262;2022-10-31T05:02:52;10.10;99.90
25550;DHT22;13444;50.562;7.262;2022-10-31T05:05:19;10.00;99.90
25550;DHT22;13444;50.562;7.262;2022-10-31T05:07:47;10.00;99.90
25550;DHT22;13444;50.562;7.262;2022-10-31T05:10:23;10.00;99.90
25550;DHT22;13444;50.562;7.262;2022-10-31T05:12:51;10.00;99.90
25550;DHT22;13444;50.562;7.262;2022-10-31T05:15:19;10.00;99.90
25550;DHT22;13444;50.562;7.262;2022-10-31T05:17:45;10.00;99.90
25550;DHT22;13444;50.562;7.262;2022-10-31T05:20:12;10.10;99.90
25550;DHT22;13444;50.562;7.262;2022-10-31T05:22:42;10.20;99.90
25550;DHT22;13444;50.562;7.262;2022-10-31T05:25:08;10.20;99.90
25550;DHT22;13444;50.562;7.262;2022-10-31T05:27:34;10.20;99.90
25550;DHT22;13444;50.562;7.262;2022-10-31T05:29:59;10.30;99.90
25550;DHT22;13444;50.562;7.262;2022-10-31T05:32:25;10.30;99.90
25550;DHT22;13444;50.562;7.262;2022-10-31T05:34:50;10.30;99.90
25550;DHT22;13444;50.562;7.262;2022-10-31T05:37:16;10.30;99.90
25550;DHT22;13444;50.562;7.262;2022-10-31T05:39:41;10.40;99.90
25550;DHT22;13444;50.562;7.262;2022-10-31T05:42:07;10.40;99.90
25550;DHT22;13444;50.562;7.262;2022-10-31T05:44:32;10.40;99.90
25550;DHT22;13444;50.562;7.262;2022-10-31T05:46:58;10.40;99.90
25550;DHT22;13444;50.562;7.262;2022-10-31T05:49:23;10.40;99.90
25550;DHT22;13444;50.562;7.262;2022-10-31T05:51:49;10.40;99.90
25550;DHT22;13444;50.562;7.262;2022-10-31T05:54:14;10.40;99.90
25550;DHT22;13444;50.562;7.262;2022-10-31T05:56:40;10.40;99.90
25550;DHT22;13444;50.562;7.262;2022-10-31T05:59:05;10.50;99.90
25550;DHT22;13444;50.562;7.262;2022-10-31T06:01:31;10.50;99.90
25550;DHT22;13444;50.562;7.262;2022-10-31T06:03:56;10.50;99.90
25550;DHT22;13444;50.562;7.262;2022-10-31T06:06:22;10.60;99.90
25550;DHT22;13444;50.562;7.262;2022-10-31T06:08:47;10.60;99.90
25550;DHT22;13444;50.562;7.262;2022-10-31T06:11:13;10.70;99.90
25550;DHT22;13444;50.562;7.262;2022-10-31T06:13:38;10.60;99.90
25550;DHT22;13444;50.562;7.262;2022-10-31T06:16:04;10.70;99.90
25550;DHT22;13444;50.562;7.262;2022-10-31T06:18:29;10.70;99.90
25550;DHT22;13444;50.562;7.262;2022-10-31T06:20:55;10.70;99.90
25550;DHT22;13444;50.562;7.262;2022-10-31T06:23:20;10.70;99.90
25550;DHT22;13444;50.562;7.262;2022-10-31T06:25:49;10.70;99.90
25550;DHT22;13444;50.562;7.262;2022-10-31T06:28:15;10.70;99.90
25550;DHT22;13444;50.562;7.262;2022-10-31T06:30:41;10.80;99.90
25550;DHT22;13444;50.562;7.262;2022-10-31T06:33:06;10.80;99.90
25550;DHT22;13444;50.562;7.262;2022-10-31T06:35:32;10.80;99.90
25550;DHT22;13444;50.562;7.262;2022-10-31T06:37:58;10.80;99.90
25550;DHT22;13444;50.562;7.262;2022-10-31T06:40:23;10.90;99.90
25550;DHT22;13444;50.562;7.262;2022-10-31T06:42:59;10.90;99.90
25550;DHT22;13444;50.562;7.262;2022-10-31T06:45:25;10.90;99.90
25550;DHT22;13444;50.562;7.262;2022-10-31T06:47:55;10.90;99.90
25550;DHT22;13444;50.562;7.262;2022-10-31T06:50:22;11.00;99.90
25550;DHT22;13444;50.562;7.262;2022-10-31T06:52:58;11.00;99.90
25550;DHT22;13444;50.562;7.262;2022-10-31T06:55:25;11.10;99.90
25550;DHT22;13444;50.562;7.262;2022-10-31T06:57:55;11.10;99.90
25550;DHT22;13444;50.562;7.262;2022-10-31T07:00:21;11.10;99.90
25550;DHT22;13444;50.562;7.262;2022-10-31T07:02:57;11.20;99.90
25550;DHT22;13444;50.562;7.262;2022-10-31T07:05:23;11.20;99.90
25550;DHT22;13444;50.562;7.262;2022-10-31T07:07:53;11.20;99.90
25550;DHT22;13444;50.562;7.262;2022-10-31T07:10:19;11.30;99.90
25550;DHT22;13444;50.562;7.262;2022-10-31T07:12:44;11.30;99.90
25550;DHT22;13444;50.562;7.262;2022-10-31T07:15:10;11.40;99.90
25550;DHT22;13444;50.562;7.262;2022-10-31T07:17:35;11.40;99.90
25550;DHT22;13444;50.562;7.262;2022-10-31T07:20:01;11.50;99.90
25550;DHT22;13444;50.562;7.262;2022-10-31T07:22:35;11.50;99.90
25550;DHT22;13444;50.562;7.262;2022-10-31T07:25:02;11.50;99.90
25550;DHT22;13444;50.562;7.262;2022-10-31T07:27:27;11.60;99.90
25550;DHT22;13444;50.562;7.262;2022-10-31T07:29:53;11.50;99.90
25550;DHT22;13444;50.562;7.262;2022-10-31T07:32:18;11.50;99.90
25550;DHT22;13444;50.562;7.262;2022-10-31T07:34:44;11.60;99.90
25550;DHT22;13444;50.562;7.262;2022-10-31T07:37:09;11.60;99.90
25550;DHT22;13444;50.562;7.262;2022-10-31T07:39:35;11.60;99.90
25550;DHT22;13444;50.562;7.262;2022-10-31T07:42:00;11.60;99.90
25550;DHT22;13444;50.562;7.262;2022-10-31T07:44:26;11.70;99.90
25550;DHT22;13444;50.562;7.262;2022-10-31T07:46:51;11.70;99.90
25550;DHT22;13444;50.562;7.262;2022-10-31T07:49:17;11.80;99.90
25550;DHT22;13444;50.562;7.262;2022-10-31T07:51:42;11.80;99.90
25550;DHT22;13444;50.562;7.262;2022-10-31T07:54:08;11.90;99.90
25550;DHT22;13444;50.562;7.262;2022-10-31T07:56:33;11.90;99.90
25550;DHT22;13444;50.562;7.262;2022-10-31T07:58:59;12.00;99.90
25550;DHT22;13444;50.562;7.262;2022-10-31T08:01:24;12.10;99.90
25550;DHT22;13444;50.562;7.262;2022-10-31T08:03:50;12.20;99.90
25550;DHT22;13444;50.562;7.262;2022-10-31T08:06:15;12.30;99.90
25550;DHT22;13444;50.562;7.262;2022-10-31T08:08:41;12.40;99.90
25550;DHT22;13444;50.562;7.262;2022-10-31T08:11:06;12.40;99.90
25550;DHT22;13444;50.562;7.262;2022-10-31T08:13:32;12.50;99.90
25550;DHT22;13444;50.562;7.262;2022-10-31T08:15:58;12.50;99.90
25550;DHT22;13444;50.562;7.262;2022-10-31T08:18:28;12.60;99.90
25550;DHT22;13444;50.562;7.262;2022-10-31T08:20:54;12.60;99.90
25550;DHT22;13444;50.562;7.262;2022-10-31T08:23:20;12.70;99.90
25550;DHT22;13444;50.562;7.262;2022-10-31T08:25:45;12.70;99.90
25550;DHT22;13444;50.562;7.262;2022-10-31T08:28:13;12.80;99.90
25550;DHT22;13444;50.562;7.262;2022-10-31T08:30:40;12.80;99.90
25550;DHT22;13444;50.562;7.262;2022-10-31T08:33:12;12.80;99.90
25550;DHT22;13444;50.562;7.262;2022-10-31T08:35:37;12.90;99.90
25550;DHT22;13444;50.562;7.262;2022-10-31T08:38:04;12.90;99.90
25550;DHT22;13444;50.562;7.262;2022-10-31T08:40:32;13.00;99.90
25550;DHT22;13444;50.562;7.262;2022-10-31T08:43:02;13.00;99.90
25550;DHT22;13444;50.562;7.262;2022-10-31T08:45:29;13.10;99.90
25550;DHT22;13444;50.562;7.262;2022-10-31T08:48:00;13.10;99.90
25550;DHT22;13444;50.562;7.262;2022-10-31T08:50:27;13.20;99.90
25550;DHT22;13444;50.562;7.262;2022-10-31T08:52:53;13.20;99.90
25550;DHT22;13444;50.562;7.262;2022-10-31T08:55:19;13.20;99.90
25550;DHT22;13444;50.562;7.262;2022-10-31T08:57:44;13.20;99.90
25550;DHT22;13444;50.562;7.262;2022-10-31T09:00:10;13.30;99.90
25550;DHT22;13444;50.562;7.262;2022-10-31T09:02:36;13.30;99.90
25550;DHT22;13444;50.562;7.262;2022-10-31T09:05:04;13.30;99.90
25550;DHT22;13444;50.562;7.262;2022-10-31T09:07:29;13.40;99.90
25550;DHT22;13444;50.562;7.262;2022-10-31T09:09:55;13.50;99.90
25550;DHT22;13444;50.562;7.262;2022-10-31T09:12:21;13.70;99.90
25550;DHT22;13444;50.562;7.262;2022-10-31T09:14:49;13.80;99.90
25550;DHT22;13444;50.562;7.262;2022-10-31T09:17:14;14.00;99.90
25550;DHT22;13444;50.562;7.262;2022-10-31T09:19:40;14.10;99.90
25550;DHT22;13444;50.562;7.262;2022-10-31T09:22:05;14.20;99.90
25550;DHT22;13444;50.562;7.262;2022-10-31T09:24:31;14.30;99.90
25550;DHT22;13444;50.562;7.262;2022-10-31T09:26:58;14.40;99.90
25550;DHT22;13444;50.562;7.262;2022-10-31T09:29:23;14.40;99.90
25550;DHT22;13444;50.562;7.262;2022-10-31T09:31:49;14.40;99.90
25550;DHT22;13444;50.562;7.262;2022-10-31T09:34:14;14.40;99.90
25550;DHT22;13444;50.562;7.262;2022-10-31T09:36:40;14.40;99.90
25550;DHT22;13444;50.562;7.262;2022-10-31T09:39:05;14.50;99.90
25550;DHT22;13444;50.562;7.262;2022-10-31T09:47:38;14.90;99.90
25550;DHT22;13444;50.562;7.262;2022-10-31T09:50:19;15.00;99.90
25550;DHT22;13444;50.562;7.262;2022-10-31T09:52:58;15.00;99.90
25550;DHT22;13444;50.562;7.262;2022-10-31T09:55:42;15.10;99.90
25550;DHT22;13444;50.562;7.262;2022-10-31T09:58:15;15.20;99.90
25550;DHT22;13444;50.562;7.262;2022-10-31T10:00:43;15.30;99.90
25550;DHT22;13444;50.562;7.262;2022-10-31T10:03:42;15.40;99.90
25550;DHT22;13444;50.562;7.262;2022-10-31T10:06:17;15.50;99.90
25550;DHT22;13444;50.562;7.262;2022-10-31T10:08:44;15.60;99.90
25550;DHT22;13444;50.562;7.262;2022-10-31T10:14:19;15.60;99.90
25550;DHT22;13444;50.562;7.262;2022-10-31T10:22:46;15.50;99.90
25550;DHT22;13444;50.562;7.262;2022-10-31T10:25:21;15.60;99.90
25550;DHT22;13444;50.562;7.262;2022-10-31T10:27:56;15.60;99.90
25550;DHT22;13444;50.562;7.262;2022-10-31T10:30:39;15.70;99.90
25550;DHT22;13444;50.562;7.262;2022-10-31T10:33:11;15.70;99.90
25550;DHT22;13444;50.562;7.262;2022-10-31T10:38:50;15.70;99.90
25550;DHT22;13444;50.562;7.262;2022-10-31T10:41:19;15.80;99.90
25550;DHT22;13444;50.562;7.262;2022-10-31T10:43:45;15.80;99.90
25550;DHT22;13444;50.562;7.262;2022-10-31T10:49:19;15.90;99.90
25550;DHT22;13444;50.562;7.262;2022-10-31T10:51:57;16.00;99.90
25550;DHT22;13444;50.562;7.262;2022-10-31T10:59:45;16.20;99.90
25550;DHT22;13444;50.562;7.262;2022-10-31T11:02:23;16.20;99.90
25550;DHT22;13444;50.562;7.262;2022-10-31T11:04:54;16.10;99.90
25550;DHT22;13444;50.562;7.262;2022-10-31T11:07:21;16.10;99.90
25550;DHT22;13444;50.562;7.262;2022-10-31T11:09:46;16.10;99.90
25550;DHT22;13444;50.562;7.262;2022-10-31T11:12:31;16.20;99.90
25550;DHT22;13444;50.562;7.262;2022-10-31T11:15:15;16.20;99.90
25550;DHT22;13444;50.562;7.262;2022-10-31T11:17:42;16.20;99.90
25550;DHT22;13444;50.562;7.262;2022-10-31T11:22:43;16.30;99.90
25550;DHT22;13444;50.562;7.262;2022-10-31T11:27:44;16.40;99.90
25550;DHT22;13444;50.562;7.262;2022-10-31T11:30:13;16.40;99.90
25550;DHT22;13444;50.562;7.262;2022-10-31T11:32:45;16.50;99.90
25550;DHT22;13444;50.562;7.262;2022-10-31T11:35:15;16.50;99.90
25550;DHT22;13444;50.562;7.262;2022-10-31T11:37:44;16.50;99.90
25550;DHT22;13444;50.562;7.262;2022-10-31T11:40:22;16.50;99.90
25550;DHT22;13444;50.562;7.262;2022-10-31T11:42:49;16.50;99.90
25550;DHT22;13444;50.562;7.262;2022-10-31T11:45:19;16.50;99.90
25550;DHT22;13444;50.562;7.262;2022-10-31T11:47:53;16.60;99.90
25550;DHT22;13444;50.562;7.262;2022-10-31T11:50:35;16.70;99.90
25550;DHT22;13444;50.562;7.262;2022-10-31T11:53:03;16.70;99.90
25550;DHT22;13444;50.562;7.262;2022-10-31T11:55:36;16.70;99.90
25550;DHT22;13444;50.562;7.262;2022-10-31T11:58:03;16.70;99.90
25550;DHT22;13444;50.562;7.262;2022-10-31T12:00:33;16.70;99.90
25550;DHT22;13444;50.562;7.262;2022-10-31T12:08:35;16.70;99.90
25550;DHT22;13444;50.562;7.262;2022-10-31T12:11:17;16.80;99.90
25550;DHT22;13444;50.562;7.262;2022-10-31T12:17:16;16.90;99.90
25550;DHT22;13444;50.562;7.262;2022-10-31T12:30:26;17.10;99.90
25550;DHT22;13444;50.562;7.262;2022-10-31T12:38:26;17.30;99.90
25550;DHT22;13444;50.562;7.262;2022-10-31T12:41:21;17.30;99.90
25550;DHT22;13444;50.562;7.262;2022-10-31T12:44:02;17.40;99.90
25550;DHT22;13444;50.562;7.262;2022-10-31T12:46:51;17.40;99.90
25550;DHT22;13444;50.562;7.262;2022-10-31T12:49:37;17.40;99.90
25550;DHT22;13444;50.562;7.262;2022-10-31T12:58:21;17.30;99.90
25550;DHT22;13444;50.562;7.262;2022-10-31T13:01:02;17.30;99.90
25550;DHT22;13444;50.562;7.262;2022-10-31T13:03:42;17.30;99.90
25550;DHT22;13444;50.562;7.262;2022-10-31T13:06:14;17.30;99.90
25550;DHT22;13444;50.562;7.262;2022-10-31T13:08:47;17.20;99.90
25550;DHT22;13444;50.562;7.262;2022-10-31T13:11:18;17.20;99.90
25550;DHT22;13444;50.562;7.262;2022-10-31T13:14:25;17.20;99.90
25550;DHT22;13444;50.562;7.262;2022-10-31T13:16:52;17.20;99.90
25550;DHT22;13444;50.562;7.262;2022-10-31T13:19:35;17.30;99.90
25550;DHT22;13444;50.562;7.262;2022-10-31T13:24:41;17.30;99.90
25550;DHT22;13444;50.562;7.262;2022-10-31T13:27:29;17.40;99.90
25550;DHT22;13444;50.562;7.262;2022-10-31T13:30:01;17.40;99.90
25550;DHT22;13444;50.562;7.262;2022-10-31T13:32:37;17.40;99.90
25550;DHT22;13444;50.562;7.262;2022-10-31T13:35:04;17.50;99.90
25550;DHT22;13444;50.562;7.262;2022-10-31T13:37:40;17.50;99.90
25550;DHT22;13444;50.562;7.262;2022-10-31T13:42:55;17.50;99.90
25550;DHT22;13444;50.562;7.262;2022-10-31T13:45:24;17.50;99.90
25550;DHT22;13444;50.562;7.262;2022-10-31T13:50:39;17.40;99.90
25550;DHT22;13444;50.562;7.262;2022-10-31T13:53:22;17.50;99.90
25550;DHT22;13444;50.562;7.262;2022-10-31T13:56:14;17.50;99.90
25550;DHT22;13444;50.562;7.262;2022-10-31T13:58:54;17.50;99.90
25550;DHT22;13444;50.562;7.262;2022-10-31T14:01:22;17.40;99.90
25550;DHT22;13444;50.562;7.262;2022-10-31T14:04:36;17.50;99.90
25550;DHT22;13444;50.562;7.262;2022-10-31T14:06:57;17.50;99.90
25550;DHT22;13444;50.562;7.262;2022-10-31T14:09:31;17.50;99.90
25550;DHT22;13444;50.562;7.262;2022-10-31T14:12:00;17.50;99.90
25550;DHT22;13444;50.562;7.262;2022-10-31T14:14:47;17.50;99.90
25550;DHT22;13444;50.562;7.262;2022-10-31T14:17:23;17.60;99.90
25550;DHT22;13444;50.562;7.262;2022-10-31T14:20:02;17.60;99.90
25550;DHT22;13444;50.562;7.262;2022-10-31T14:22:32;17.70;99.90
25550;DHT22;13444;50.562;7.262;2022-10-31T14:24:58;17.70;99.90
25550;DHT22;13444;50.562;7.262;2022-10-31T14:29:53;17.80;99.90
25550;DHT22;13444;50.562;7.262;2022-10-31T14:32:22;17.80;99.90
25550;DHT22;13444;50.562;7.262;2022-10-31T14:34:58;17.90;99.90
25550;DHT22;13444;50.562;7.262;2022-10-31T14:45:18;18.10;99.90
25550;DHT22;13444;50.562;7.262;2022-10-31T14:48:00;18.10;99.90
25550;DHT22;13444;50.562;7.262;2022-10-31T14:50:48;18.20;99.90
25550;DHT22;13444;50.562;7.262;2022-10-31T14:53:36;18.20;99.90
25550;DHT22;13444;50.562;7.262;2022-10-31T14:56:09;18.20;99.90
25550;DHT22;13444;50.562;7.262;2022-10-31T14:58:38;18.10;99.90
25550;DHT22;13444;50.562;7.262;2022-10-31T15:01:05;18.20;99.90
25550;DHT22;13444;50.562;7.262;2022-10-31T15:03:40;18.10;99.90
25550;DHT22;13444;50.562;7.262;2022-10-31T15:06:18;18.10;99.90
25550;DHT22;13444;50.562;7.262;2022-10-31T15:08:53;18.00;99.90
25550;DHT22;13444;50.562;7.262;2022-10-31T15:11:26;18.00;99.90
25550;DHT22;13444;50.562;7.262;2022-10-31T15:13:54;18.00;99.90
25550;DHT22;13444;50.562;7.262;2022-10-31T15:16:28;17.90;99.90
25550;DHT22;13444;50.562;7.262;2022-10-31T15:18:59;17.90;99.90
25550;DHT22;13444;50.562;7.262;2022-10-31T15:21:26;17.90;99.90
25550;DHT22;13444;50.562;7.262;2022-10-31T15:23:54;17.80;99.90
25550;DHT22;13444;50.562;7.262;2022-10-31T15:26:23;17.70;99.90
25550;DHT22;13444;50.562;7.262;2022-10-31T15:31:25;17.70;99.90
25550;DHT22;13444;50.562;7.262;2022-10-31T15:33:51;17.70;99.90
25550;DHT22;13444;50.562;7.262;2022-10-31T15:36:22;17.60;99.90
25550;DHT22;13444;50.562;7.262;2022-10-31T15:38:49;17.60;99.90
25550;DHT22;13444;50.562;7.262;2022-10-31T15:44:00;17.50;99.90
25550;DHT22;13444;50.562;7.262;2022-10-31T15:46:27;17.50;99.90
25550;DHT22;13444;50.562;7.262;2022-10-31T15:48:53;17.50;99.90
25550;DHT22;13444;50.562;7.262;2022-10-31T15:51:29;17.50;99.90
25550;DHT22;13444;50.562;7.262;2022-10-31T15:53:56;17.50;99.90
25550;DHT22;13444;50.562;7.262;2022-10-31T15:56:24;17.40;99.90
25550;DHT22;13444;50.562;7.262;2022-10-31T15:58:52;17.30;99.90
25550;DHT22;13444;50.562;7.262;2022-10-31T16:01:29;17.20;99.90
25550;DHT22;13444;50.562;7.262;2022-10-31T16:06:30;17.10;99.90
25550;DHT22;13444;50.562;7.262;2022-10-31T16:08:56;17.10;99.90
25550;DHT22;13444;50.562;7.262;2022-10-31T16:11:32;17.00;99.90
25550;DHT22;13444;50.562;7.262;2022-10-31T16:14:23;17.00;99.90
25550;DHT22;13444;50.562;7.262;2022-10-31T16:16:51;17.00;99.90
25550;DHT22;13444;50.562;7.262;2022-10-31T16:19:27;16.90;99.90
25550;DHT22;13444;50.562;7.262;2022-10-31T16:22:01;16.90;99.90
25550;DHT22;13444;50.562;7.262;2022-10-31T16:24:32;16.90;99.90
25550;DHT22;13444;50.562;7.262;2022-10-31T16:27:06;16.90;99.90
25550;DHT22;13444;50.562;7.262;2022-10-31T16:29:42;16.80;99.90
25550;DHT22;13444;50.562;7.262;2022-10-31T16:32:28;16.80;99.90
25550;DHT22;13444;50.562;7.262;2022-10-31T16:37:41;16.70;99.90
25550;DHT22;13444;50.562;7.262;2022-10-31T16:40:11;16.60;99.90
25550;DHT22;13444;50.562;7.262;2022-10-31T16:42:38;16.60;99.90
25550;DHT22;13444;50.562;7.262;2022-10-31T16:45:05;16.60;99.90
25550;DHT22;13444;50.562;7.262;2022-10-31T16:47:31;16.50;99.90
25550;DHT22;13444;50.562;7.262;2022-10-31T16:49:56;16.50;99.90
25550;DHT22;13444;50.562;7.262;2022-10-31T16:52:25;16.50;99.90
25550;DHT22;13444;50.562;7.262;2022-10-31T16:54:51;16.50;99.90
25550;DHT22;13444;50.562;7.262;2022-10-31T16:57:21;16.40;99.90
25550;DHT22;13444;50.562;7.262;2022-10-31T16:59:51;16.30;99.90
25550;DHT22;13444;50.562;7.262;2022-10-31T17:02:19;16.30;99.90
25550;DHT22;13444;50.562;7.262;2022-10-31T17:04:44;16.20;99.90
25550;DHT22;13444;50.562;7.262;2022-10-31T17:07:10;16.10;99.90
25550;DHT22;13444;50.562;7.262;2022-10-31T17:09:36;16.10;99.90
25550;DHT22;13444;50.562;7.262;2022-10-31T17:12:01;15.90;99.90
25550;DHT22;13444;50.562;7.262;2022-10-31T17:14:27;15.90;99.90
25550;DHT22;13444;50.562;7.262;2022-10-31T17:16:53;15.80;99.90
25550;DHT22;13444;50.562;7.262;2022-10-31T17:19:19;15.70;99.90
25550;DHT22;13444;50.562;7.262;2022-10-31T17:21:44;15.70;99.90
25550;DHT22;13444;50.562;7.262;2022-10-31T17:24:12;15.60;99.90
25550;DHT22;13444;50.562;7.262;2022-10-31T17:26:38;15.60;99.90
25550;DHT22;13444;50.562;7.262;2022-10-31T17:29:04;15.60;99.90
25550;DHT22;13444;50.562;7.262;2022-10-31T17:31:31;15.60;99.90
25550;DHT22;13444;50.562;7.262;2022-10-31T17:33:58;15.50;99.90
25550;DHT22;13444;50.562;7.262;2022-10-31T17:36:24;15.40;99.90
25550;DHT22;13444;50.562;7.262;2022-10-31T17:38:50;15.30;99.90